Domov               UVHVVR             MKGP            O straneh              
ZDRAVSTVENO VARSTVO RASTLIN
  MREŽA AGROMET. POSTAJ
 ► PROGNOSTIČNA OBVESTILA
AGROMETEOROLOŠKI PODATKI -
ARSO
OBVLADOVANJE TVEGANJ ZARADI
NEUGODNIH VREMENSKIH RAZMER
  ► NARAVNE NESREČE
  ► SUŠA/MOČA
  ► NAMAKANJE
  ► ŽLED (gozdarstvo)
KARTOGRAFSKI PRIKAZI
SPLETNE POVEZAVE
PROJEKTI IN PUBLIKACIJE

AGROMETEOROLOŠKA MREŽA: VREMENSKE POSTAJE IN FENOLOŠKA OPAZOVANJA

Pregled podatkov za lokacijo Gabernik-Rogaška, meteorološka postaja 37800

Pregled senzorjev na lokaciji

ID Ime Zadnja
vrednost
Datum in čas
zadnje
spremembe
(Lokalni čas)
Tip
senzorja
1828 Omočenost lista (U) 0 U 18.10.2019 17:29 A730WET
4946 Padavine (mm) 0 mm 18.10.2019 17:29 Generic 0.2 mm
1827 Relativna vlaga 2 m (% RH) 67.62 % RH 18.10.2019 17:29 50YA
1826 Temperatura 2 m (°C) 17.51 °C 18.10.2019 17:29 50YA

Pregled podatkov zadnjih 24 ur

Zap.
št.
Datum in čas
(Centralno
evropski čas)
Gabernik-Rogaška
Omočenost
lista
Padavine Relativna
vlaga
2
m
Temperatura
2
m
1 18.10.2019 17:30
2 18.10.2019 17:00
3 18.10.2019 16:30 0 0 67.6 17.5
4 18.10.2019 16:00 0 0 62.7 19.1
5 18.10.2019 15:30 0 0 60.2 20.1
6 18.10.2019 15:00 0 0 60.2 20.6
7 18.10.2019 14:30 0 0 64.4 19
8 18.10.2019 14:00 0 0 60.1 20.1
9 18.10.2019 13:30 0 0 59.4 20.1
10 18.10.2019 13:00 0 0 57.9 20.9
11 18.10.2019 12:30 0 0 58.3 21.2
12 18.10.2019 12:00 0 0 61.2 20.7
13 18.10.2019 11:30 0 0 65 19.7
14 18.10.2019 11:00 0 0 71.8 17.4
15 18.10.2019 10:30 0 0 75.9 16.1
16 18.10.2019 10:00 0 0 79.4 14.7
17 18.10.2019 09:30 0 0 81.1 13.7
18 18.10.2019 09:00 0 0 84.1 13
19 18.10.2019 08:30 0 0 86 12.5
20 18.10.2019 08:00 0 0 87 12.2
21 18.10.2019 07:30 0 0 89.1 11.7
22 18.10.2019 07:00 0 0 89.6 11.6
23 18.10.2019 06:30 0 0 90.4 11.3
24 18.10.2019 06:00 0 0 91.5 11.1
25 18.10.2019 05:30 0 0 92.5 10.8
26 18.10.2019 05:00 0 0 91.7 10.9
27 18.10.2019 04:30 0 0 90.2 11.2
28 18.10.2019 04:00 0 0 88.4 11.5
29 18.10.2019 03:30 0 0 87.1 11.7
30 18.10.2019 03:00 0 0 86.1 11.9
31 18.10.2019 02:30 0 0 85.1 12.1
32 18.10.2019 02:00 0 0 86.9 11.7
33 18.10.2019 01:30 0 0 86.5 11.8
34 18.10.2019 01:00 0 0 83 12.6
35 18.10.2019 00:30 0 0 81.8 12.9
36 18.10.2019 00:00 0 0 79.8 13.4
37 17.10.2019 23:30 0 0 83.4 12.9
38 17.10.2019 23:00 0 0 80.4 13.6
39 17.10.2019 22:30 0 0 79.1 13.8
40 17.10.2019 22:00 0 0 77.3 14.4
41 17.10.2019 21:30 0 0 79.8 14.3
42 17.10.2019 21:00 0 0 82.6 14.1
43 17.10.2019 20:30 0 0 83 14.3
44 17.10.2019 20:00 0 0 82.9 14.5
45 17.10.2019 19:30 0 0 83.9 14.6
46 17.10.2019 19:00 0 0 83.6 14.7
47 17.10.2019 18:30 0 0 83.9 14.8
48 17.10.2019 18:00 0 0 83.6 15.1
© 2011 Ministrstvo za kmetijstvo, gozdarstvo in prehrano. Vse pravice pridržane.